Time;durP1;ratioP1;P1;durP2;ratioP2;P2;SDS_P1;SDS_P2;PMS_P1;PMS_P2;Temp;Humidity;BMP_temperature;BMP_pressure;BME280_temperature;BME280_humidity;BME280_pressure;Samples;Min_cycle;Max_cycle;Signal;HPM_P1;HPM_P2
2022/01/07 00:01:30;;;;;;;12.40;5.00;;;3.90;96.90;;;;;;5073347;28;20059;-77
2022/01/07 00:03:56;;;;;;;17.98;4.50;;;3.90;96.90;;;;;;5073343;28;20052;-76
2022/01/07 00:06:22;;;;;;;12.93;4.65;;;3.90;96.90;;;;;;5073126;28;20089;-77
2022/01/07 00:08:48;;;;;;;11.40;4.65;;;3.80;96.70;;;;;;5072516;28;20065;-75
2022/01/07 00:11:13;;;;;;;10.43;4.15;;;3.90;96.70;;;;;;5073392;28;20398;-75
2022/01/07 00:13:39;;;;;;;11.77;4.85;;;3.90;96.70;;;;;;5073423;28;20536;-76
2022/01/07 00:16:05;;;;;;;10.65;4.10;;;3.90;96.80;;;;;;5039442;28;20048;-76
2022/01/07 00:18:31;;;;;;;9.80;4.63;;;3.90;96.90;;;;;;5058385;28;20400;-75
2022/01/07 00:20:57;;;;;;;13.80;4.47;;;3.80;97.00;;;;;;5056544;28;20051;-75
2022/01/07 00:23:23;;;;;;;9.23;4.20;;;3.90;97.00;;;;;;5072096;28;20097;-75
2022/01/07 00:25:49;;;;;;;13.75;3.92;;;3.80;97.10;;;;;;5072804;28;20059;-76
2022/01/07 00:28:16;;;;;;;12.65;3.95;;;3.80;97.20;;;;;;5072830;28;20044;-76
2022/01/07 00:30:42;;;;;;;10.90;3.58;;;3.80;97.10;;;;;;5072323;28;20056;-77
2022/01/07 00:33:08;;;;;;;10.65;3.60;;;3.80;97.30;;;;;;5072957;28;20404;-75
2022/01/07 00:35:34;;;;;;;12.77;3.63;;;3.80;97.10;;;;;;5072778;28;20428;-76
2022/01/07 00:38:00;;;;;;;8.65;3.50;;;3.70;97.20;;;;;;5072440;28;20040;-73
2022/01/07 00:40:26;;;;;;;8.18;3.08;;;3.80;97.20;;;;;;5042665;28;20050;-76
2022/01/07 00:42:53;;;;;;;13.13;3.67;;;3.80;97.60;;;;;;5056295;28;20036;-77
2022/01/07 00:45:21;;;;;;;10.32;3.58;;;3.80;97.40;;;;;;5072680;28;20400;-76
2022/01/07 00:47:47;;;;;;;11.88;3.28;;;3.80;97.50;;;;;;5056180;28;20427;-78
2022/01/07 00:50:14;;;;;;;8.77;2.85;;;3.70;97.60;;;;;;5039638;28;20493;-76
2022/01/07 00:52:39;;;;;;;11.20;3.45;;;3.70;97.60;;;;;;5063895;28;20091;-73
2022/01/07 00:55:07;;;;;;;9.35;3.25;;;3.70;97.80;;;;;;5072698;28;20083;-71
2022/01/07 00:57:33;;;;;;;11.13;3.35;;;3.70;98.00;;;;;;5072285;28;20084;-76
2022/01/07 00:59:58;;;;;;;10.02;3.47;;;3.70;98.20;;;;;;5055703;28;20087;-74
2022/01/07 01:02:24;;;;;;;10.80;3.20;;;3.70;98.20;;;;;;5056187;28;20066;-75
2022/01/07 01:04:50;;;;;;;7.93;3.00;;;3.60;98.20;;;;;;5071678;28;20506;-74
2022/01/07 01:07:16;;;;;;;9.75;3.70;;;3.60;98.40;;;;;;5072884;28;20127;-75
2022/01/07 01:09:42;;;;;;;7.15;3.53;;;3.60;98.50;;;;;;5072079;28;20093;-76
2022/01/07 01:12:09;;;;;;;9.77;3.83;;;3.60;99.10;;;;;;5072610;28;20056;-75
2022/01/07 01:14:35;;;;;;;7.20;3.67;;;3.50;99.00;;;;;;5054256;28;20040;-70
2022/01/07 01:17:01;;;;;;;11.15;3.80;;;3.50;99.00;;;;;;5056036;28;20059;-73
2022/01/07 01:19:27;;;;;;;11.43;4.45;;;3.50;99.40;;;;;;5071923;28;20138;-74
2022/01/07 01:21:54;;;;;;;9.57;4.03;;;3.40;99.60;;;;;;5055682;28;20035;-73
2022/01/07 01:24:20;;;;;;;13.02;5.20;;;3.40;99.60;;;;;;5072057;28;20048;-73
2022/01/07 01:26:45;;;;;;;9.75;4.30;;;3.40;99.90;;;;;;5072659;28;20058;-71
2022/01/07 01:29:11;;;;;;;13.23;5.22;;;3.30;99.90;;;;;;5076030;28;20036;-72
2022/01/07 01:31:37;;;;;;;9.90;5.45;;;3.30;99.90;;;;;;5076582;28;20405;-72
2022/01/07 01:34:03;;;;;;;13.10;5.40;;;3.30;99.90;;;;;;5075419;28;20036;-73
2022/01/07 01:36:29;;;;;;;10.90;5.57;;;3.20;99.90;;;;;;5076148;28;20623;-73
2022/01/07 01:38:56;;;;;;;10.50;5.15;;;3.20;99.90;;;;;;5075218;28;20519;-74
2022/01/07 01:41:21;;;;;;;8.63;5.63;;;3.20;99.90;;;;;;5076016;28;20040;-71
2022/01/07 01:43:49;;;;;;;15.75;6.20;;;3.20;99.90;;;;;;5075870;28;20046;-74
2022/01/07 01:46:16;;;;;;;8.65;5.47;;;3.20;99.90;;;;;;5058603;28;20559;-73
2022/01/07 01:48:43;;;;;;;13.23;5.60;;;3.10;99.90;;;;;;5075139;28;20066;-74
2022/01/07 01:51:09;;;;;;;11.48;6.40;;;3.10;99.90;;;;;;5076420;28;20460;-74
2022/01/07 01:53:35;;;;;;;11.77;6.13;;;3.10;99.90;;;;;;5075109;28;20044;-70
2022/01/07 01:56:00;;;;;;;10.40;5.68;;;3.10;99.90;;;;;;5076087;28;20118;-74
2022/01/07 01:58:26;;;;;;;14.00;6.32;;;3.10;99.90;;;;;;5075236;28;20040;-74
2022/01/07 02:00:52;;;;;;;8.55;5.93;;;3.00;99.90;;;;;;5075529;28;20073;-74
2022/01/07 02:03:17;;;;;;;13.43;6.55;;;3.10;99.90;;;;;;5075210;28;20389;-75
2022/01/07 02:05:45;;;;;;;12.88;6.35;;;3.00;99.90;;;;;;5075816;28;20144;-70
2022/01/07 02:08:11;;;;;;;10.95;7.03;;;3.00;99.90;;;;;;5074798;28;20552;-73
2022/01/07 02:10:36;;;;;;;14.05;7.40;;;3.00;99.90;;;;;;5075957;28;20143;-74
2022/01/07 02:13:02;;;;;;;11.63;6.82;;;3.00;99.90;;;;;;5054534;28;20044;-76
2022/01/07 02:15:28;;;;;;;15.27;7.30;;;3.00;99.90;;;;;;5075167;28;20056;-75
2022/01/07 02:17:54;;;;;;;19.70;7.65;;;3.00;99.90;;;;;;5054499;28;20067;-75
2022/01/07 02:20:23;;;;;;;12.75;7.78;;;3.00;99.90;;;;;;5075669;28;20441;-76
2022/01/07 02:22:48;;;;;;;14.93;7.97;;;3.00;99.90;;;;;;5073774;28;20028;-75
2022/01/07 02:25:15;;;;;;;14.25;7.85;;;2.90;99.90;;;;;;5075185;28;20036;-75
2022/01/07 02:27:43;;;;;;;14.48;8.02;;;2.90;99.90;;;;;;5074632;28;20044;-75
2022/01/07 02:30:11;;;;;;;13.70;8.07;;;3.00;99.90;;;;;;5075005;28;20078;-72
2022/01/07 02:32:37;;;;;;;14.90;7.75;;;2.90;99.90;;;;;;5075146;28;20048;-75
2022/01/07 02:35:05;;;;;;;14.77;8.93;;;3.00;99.90;;;;;;5075019;28;20105;-75
2022/01/07 02:37:31;;;;;;;11.80;7.95;;;3.00;99.90;;;;;;5074015;28;20043;-75
2022/01/07 02:39:56;;;;;;;14.23;8.65;;;3.00;99.90;;;;;;5074921;28;20044;-74
2022/01/07 02:42:22;;;;;;;14.93;8.55;;;2.90;99.90;;;;;;5074221;28;20478;-73
2022/01/07 02:44:48;;;;;;;16.58;8.60;;;2.90;99.90;;;;;;5074905;28;20557;-75
2022/01/07 02:47:13;;;;;;;13.57;8.48;;;3.00;99.90;;;;;;5074909;28;20079;-74
2022/01/07 02:49:39;;;;;;;15.30;8.95;;;3.00;99.90;;;;;;5054436;28;20040;-74
2022/01/07 02:52:05;;;;;;;13.00;8.50;;;3.00;99.90;;;;;;5065400;28;20048;-74
2022/01/07 02:54:30;;;;;;;13.75;9.00;;;3.00;99.90;;;;;;5074701;28;20412;-74
2022/01/07 02:56:56;;;;;;;15.98;9.05;;;3.00;99.90;;;;;;5050603;28;20040;-73
2022/01/07 02:59:22;;;;;;;13.80;8.93;;;3.00;99.90;;;;;;5071573;28;20059;-74
2022/01/07 03:01:47;;;;;;;11.15;8.10;;;3.00;99.90;;;;;;5092089;28;20048;-74
2022/01/07 03:04:13;;;;;;;13.80;8.43;;;3.00;99.90;;;;;;5092292;28;20037;-74
2022/01/07 03:06:40;;;;;;;17.27;8.77;;;3.00;99.90;;;;;;5074026;28;20121;-74
2022/01/07 03:09:06;;;;;;;13.85;8.55;;;3.00;99.90;;;;;;5074874;28;20388;-75
2022/01/07 03:11:32;;;;;;;13.18;8.10;;;3.00;99.90;;;;;;5091815;28;20048;-75
2022/01/07 03:13:58;;;;;;;12.82;8.95;;;3.00;99.90;;;;;;5092603;28;20040;-74
2022/01/07 03:16:23;;;;;;;9.98;7.95;;;3.10;99.90;;;;;;5092613;28;20036;-74
2022/01/07 03:18:49;;;;;;;11.65;8.10;;;3.10;99.90;;;;;;5056467;28;20043;-76
2022/01/07 03:21:15;;;;;;;17.15;8.75;;;3.10;99.90;;;;;;5073877;28;20032;-76
2022/01/07 03:23:41;;;;;;;10.70;8.70;;;3.10;99.90;;;;;;5074102;28;20083;-75
2022/01/07 03:26:10;;;;;;;17.65;9.15;;;3.10;99.90;;;;;;5073689;28;20102;-74
2022/01/07 03:28:37;;;;;;;13.60;8.30;;;3.10;99.90;;;;;;5074424;28;20044;-75
2022/01/07 03:31:03;;;;;;;9.38;7.57;;;3.10;99.90;;;;;;5074372;28;20058;-72
2022/01/07 03:33:28;;;;;;;14.32;8.52;;;3.10;99.90;;;;;;5073178;28;20036;-73
2022/01/07 03:35:54;;;;;;;11.88;7.78;;;3.10;99.90;;;;;;5074213;28;20040;-74
2022/01/07 03:38:20;;;;;;;11.02;7.32;;;3.10;99.90;;;;;;5073812;28;20480;-74
2022/01/07 03:40:48;;;;;;;12.82;7.82;;;3.10;99.90;;;;;;5056920;28;20054;-74
2022/01/07 03:43:14;;;;;;;11.38;7.97;;;3.20;99.90;;;;;;5073381;28;20119;-74
2022/01/07 03:45:40;;;;;;;10.52;7.80;;;3.10;99.90;;;;;;5072593;28;20051;-75
2022/01/07 03:48:06;;;;;;;11.50;8.13;;;3.10;99.90;;;;;;5073679;28;20400;-74
2022/01/07 03:50:31;;;;;;;12.02;8.40;;;3.10;99.90;;;;;;5072942;28;20040;-75
2022/01/07 03:52:58;;;;;;;11.38;7.50;;;3.10;99.90;;;;;;5072088;28;20142;-75
2022/01/07 03:55:26;;;;;;;12.95;8.20;;;3.10;99.90;;;;;;5073557;28;20044;-76
2022/01/07 03:57:52;;;;;;;10.30;7.05;;;3.10;99.90;;;;;;5044814;28;20145;-73
2022/01/07 04:00:25;;;;;;;9.20;7.47;;;3.10;99.90;;;;;;5036472;28;20082;-73
2022/01/07 04:02:52;;;;;;;13.65;7.80;;;3.10;99.90;;;;;;5062523;28;20051;-72
2022/01/07 04:05:21;;;;;;;11.70;7.35;;;3.10;99.90;;;;;;5056966;28;20116;-72
2022/01/07 04:07:47;;;;;;;7.82;6.82;;;3.10;99.90;;;;;;5072233;28;20118;-72
2022/01/07 04:10:12;;;;;;;10.07;7.82;;;3.20;99.90;;;;;;5073827;28;20131;-72
2022/01/07 04:12:38;;;;;;;11.43;7.78;;;3.10;99.90;;;;;;5073519;28;20547;-72
2022/01/07 04:15:08;;;;;;;9.63;7.70;;;3.10;99.90;;;;;;5072754;28;20036;-72
2022/01/07 04:17:44;;;;;;;9.68;7.50;;;3.10;99.90;;;;;;5083880;28;20087;-72
2022/01/07 04:20:12;;;;;;;11.35;8.02;;;3.10;99.90;;;;;;5039786;28;20036;-72
2022/01/07 04:22:37;;;;;;;9.73;7.07;;;3.20;99.90;;;;;;5083653;28;20265;-71
2022/01/07 04:25:07;;;;;;;12.32;7.35;;;3.20;99.90;;;;;;5055091;28;20131;-73
2022/01/07 04:27:33;;;;;;;7.88;6.88;;;3.20;99.90;;;;;;5073201;28;20447;-73
2022/01/07 04:29:59;;;;;;;9.20;6.68;;;3.20;99.90;;;;;;5055726;28;20043;-69
2022/01/07 04:32:24;;;;;;;12.15;6.80;;;3.20;99.90;;;;;;5073206;28;20048;-73
2022/01/07 04:34:50;;;;;;;11.02;7.35;;;3.20;99.90;;;;;;5072810;28;20145;-73
2022/01/07 04:37:17;;;;;;;7.60;6.28;;;3.20;99.90;;;;;;5072698;28;20043;-69
2022/01/07 04:39:42;;;;;;;9.07;7.18;;;3.20;99.90;;;;;;5073218;28;20048;-69
2022/01/07 04:42:08;;;;;;;8.95;6.35;;;3.20;99.90;;;;;;5072149;28;20042;-72
2022/01/07 04:44:38;;;;;;;10.23;6.28;;;3.20;99.90;;;;;;5091146;28;20048;-73
2022/01/07 04:47:04;;;;;;;8.93;6.85;;;3.20;99.90;;;;;;5072374;28;20060;-69
2022/01/07 04:49:30;;;;;;;8.82;6.70;;;3.20;99.90;;;;;;5090605;28;20043;-72
2022/01/07 04:51:55;;;;;;;7.38;6.15;;;3.20;99.90;;;;;;5072277;28;20044;-73
2022/01/07 04:54:21;;;;;;;7.60;6.22;;;3.20;99.90;;;;;;5073138;28;20123;-71
2022/01/07 04:56:46;;;;;;;7.88;6.38;;;3.20;99.90;;;;;;5071981;28;20051;-73
2022/01/07 04:59:12;;;;;;;8.45;5.72;;;3.20;99.90;;;;;;5072976;28;20472;-73
2022/01/07 05:01:37;;;;;;;6.68;5.88;;;3.20;99.90;;;;;;5092773;28;20040;-74
2022/01/07 05:04:03;;;;;;;7.05;5.72;;;3.20;99.90;;;;;;5075972;28;20123;-69
2022/01/07 05:06:45;;;;;;;7.57;5.85;;;3.20;99.90;;;;;;5076357;28;20135;-72
2022/01/07 05:09:16;;;;;;;6.97;5.85;;;3.30;99.90;;;;;;5077341;28;20473;-73
2022/01/07 05:11:42;;;;;;;7.80;5.95;;;3.20;99.90;;;;;;5075384;28;20115;-73
2022/01/07 05:14:08;;;;;;;8.70;5.35;;;3.30;99.90;;;;;;5077187;28;20040;-72
2022/01/07 05:16:34;;;;;;;6.75;5.60;;;3.30;99.90;;;;;;5094397;28;20047;-72
2022/01/07 05:19:00;;;;;;;6.20;5.35;;;3.30;99.90;;;;;;5076550;28;20100;-73
2022/01/07 05:21:26;;;;;;;8.02;5.78;;;3.20;99.90;;;;;;5075953;28;20040;-73
2022/01/07 05:23:52;;;;;;;6.45;5.72;;;3.30;99.90;;;;;;5076965;28;20055;-72
2022/01/07 05:26:17;;;;;;;6.53;5.35;;;3.30;99.90;;;;;;5075154;28;20132;-73
2022/01/07 05:28:43;;;;;;;6.68;5.85;;;3.30;99.90;;;;;;5076480;28;20058;-69
2022/01/07 05:31:09;;;;;;;7.25;5.55;;;3.30;99.90;;;;;;5075624;28;20131;-73
2022/01/07 05:33:34;;;;;;;6.28;5.32;;;3.30;99.90;;;;;;5076694;28;20040;-73
2022/01/07 05:36:00;;;;;;;6.22;5.63;;;3.30;99.90;;;;;;5075986;28;20047;-73
2022/01/07 05:38:25;;;;;;;7.95;5.75;;;3.30;99.90;;;;;;5075481;28;20048;-72
2022/01/07 05:40:51;;;;;;;6.47;5.63;;;3.30;99.90;;;;;;5075454;28;20070;-73
2022/01/07 05:43:17;;;;;;;6.10;5.40;;;3.30;99.90;;;;;;5076678;28;20048;-72
2022/01/07 05:45:45;;;;;;;8.85;5.45;;;3.30;99.90;;;;;;5074719;28;20507;-73
2022/01/07 05:48:12;;;;;;;6.13;5.32;;;3.30;99.90;;;;;;5076348;28;20036;-75
2022/01/07 05:50:37;;;;;;;6.82;5.57;;;3.30;99.90;;;;;;5058707;28;20060;-75
2022/01/07 05:53:03;;;;;;;6.05;5.45;;;3.40;99.90;;;;;;5055346;28;20049;-74
2022/01/07 05:55:29;;;;;;;5.50;4.95;;;3.30;99.90;;;;;;5041291;28;20041;-72
2022/01/07 05:57:55;;;;;;;8.07;5.82;;;3.30;99.90;;;;;;5055719;28;20110;-74
2022/01/07 06:00:20;;;;;;;7.70;5.18;;;3.40;99.90;;;;;;5068005;28;20083;-74
2022/01/07 06:02:46;;;;;;;6.35;5.75;;;3.40;99.90;;;;;;5058984;28;20642;-74
2022/01/07 06:05:12;;;;;;;7.93;6.10;;;3.40;99.90;;;;;;5074878;28;20412;-74
2022/01/07 06:07:38;;;;;;;7.53;5.85;;;3.40;99.90;;;;;;5075531;28;20119;-75
2022/01/07 06:10:08;;;;;;;6.53;5.82;;;3.40;99.90;;;;;;5076051;28;20043;-70
2022/01/07 06:12:33;;;;;;;7.00;6.30;;;3.40;99.90;;;;;;5075052;28;20044;-73
2022/01/07 06:14:59;;;;;;;7.38;5.95;;;3.50;99.90;;;;;;5074494;28;20105;-73
2022/01/07 06:17:25;;;;;;;10.50;7.05;;;3.50;99.90;;;;;;5075416;28;20122;-73
2022/01/07 06:19:51;;;;;;;7.32;6.55;;;3.50;99.90;;;;;;5075807;28;20418;-71
2022/01/07 06:22:17;;;;;;;7.18;6.47;;;3.50;99.90;;;;;;5047938;28;20051;-74
2022/01/07 06:24:42;;;;;;;9.48;7.13;;;3.50;99.90;;;;;;5058825;28;20032;-75
2022/01/07 06:27:08;;;;;;;8.63;7.45;;;3.50;99.90;;;;;;5075461;28;20044;-74
2022/01/07 06:29:34;;;;;;;7.80;6.93;;;3.60;99.90;;;;;;5057930;28;20097;-75
2022/01/07 06:32:00;;;;;;;8.18;6.97;;;3.60;99.90;;;;;;5075171;28;20458;-76
2022/01/07 06:34:25;;;;;;;8.32;7.45;;;3.60;99.90;;;;;;5074368;28;20079;-75
2022/01/07 06:36:51;;;;;;;9.00;7.55;;;3.60;99.90;;;;;;5075050;28;20040;-76
2022/01/07 06:39:22;;;;;;;8.35;7.28;;;3.50;99.90;;;;;;5092837;28;20048;-71
2022/01/07 06:41:49;;;;;;;11.90;9.05;;;3.60;99.90;;;;;;5074610;28;20056;-75
2022/01/07 06:44:15;;;;;;;10.95;8.57;;;3.50;99.90;;;;;;5075320;28;20071;-76
2022/01/07 06:46:40;;;;;;;11.68;8.80;;;3.50;99.90;;;;;;5074743;28;20063;-72
2022/01/07 06:49:06;;;;;;;10.15;8.77;;;3.50;99.90;;;;;;5057855;28;20811;-74
2022/01/07 06:51:32;;;;;;;10.13;8.82;;;3.60;99.90;;;;;;5092945;28;20396;-73
2022/01/07 06:53:58;;;;;;;9.80;8.77;;;3.60;99.90;;;;;;5074775;28;20044;-73
2022/01/07 06:56:24;;;;;;;10.05;9.02;;;3.60;99.90;;;;;;5074675;28;20481;-73
2022/01/07 06:58:50;;;;;;;11.48;8.60;;;3.60;99.90;;;;;;5074368;28;20051;-74
2022/01/07 07:01:16;;;;;;;11.40;9.57;;;3.60;99.90;;;;;;5074844;28;20059;-75
2022/01/07 07:03:42;;;;;;;11.80;10.32;;;3.60;99.90;;;;;;5074076;28;20040;-74
2022/01/07 07:06:08;;;;;;;12.85;11.23;;;3.60;99.90;;;;;;5074451;28;20066;-73
2022/01/07 07:08:34;;;;;;;12.30;11.05;;;3.60;99.90;;;;;;5073996;28;20519;-75
2022/01/07 07:11:00;;;;;;;13.85;10.73;;;3.70;99.90;;;;;;5091979;28;20040;-67
2022/01/07 07:13:25;;;;;;;12.90;11.57;;;3.70;99.90;;;;;;5074105;28;20074;-73
2022/01/07 07:15:51;;;;;;;17.10;11.70;;;3.70;99.90;;;;;;5074457;28;20111;-71
2022/01/07 07:18:17;;;;;;;17.15;12.13;;;3.70;99.90;;;;;;5073650;28;20412;-71
2022/01/07 07:20:43;;;;;;;14.85;12.70;;;3.80;99.90;;;;;;5090535;28;20506;-72
2022/01/07 07:23:09;;;;;;;14.68;12.98;;;3.80;99.90;;;;;;5057972;28;20369;-74
2022/01/07 07:25:35;;;;;;;14.88;13.27;;;3.80;99.90;;;;;;5072409;28;20055;-72
2022/01/07 07:28:01;;;;;;;15.18;13.68;;;3.80;99.90;;;;;;5073887;28;20051;-68
2022/01/07 07:30:34;;;;;;;15.65;14.02;;;3.90;99.90;;;;;;5073702;28;20056;-70
2022/01/07 07:33:18;;;;;;;18.13;14.60;;;3.90;99.90;;;;;;5073886;28;20040;-73
2022/01/07 07:38:11;;;;;;;15.95;14.20;;;3.90;99.90;;;;;;5063493;28;20063;-72
2022/01/07 07:40:37;;;;;;;18.15;16.35;;;4.00;99.90;;;;;;5074288;28;20498;-72
2022/01/07 07:43:03;;;;;;;18.10;16.17;;;4.00;99.90;;;;;;5057005;28;20055;-72
2022/01/07 07:45:28;;;;;;;17.65;15.20;;;4.00;99.90;;;;;;5072655;28;20135;-75
2022/01/07 07:47:54;;;;;;;18.58;14.77;;;4.10;99.90;;;;;;5073760;28;20051;-75
2022/01/07 07:50:20;;;;;;;18.83;16.17;;;4.10;99.90;;;;;;5072762;28;20377;-75
2022/01/07 07:52:45;;;;;;;18.75;16.33;;;4.10;99.90;;;;;;5072506;28;20165;-75
2022/01/07 07:55:11;;;;;;;17.00;15.40;;;4.10;99.90;;;;;;5073240;28;20036;-75
2022/01/07 07:57:37;;;;;;;23.65;17.77;;;4.20;99.90;;;;;;5071792;28;20055;-73
2022/01/07 08:00:04;;;;;;;20.85;18.33;;;4.20;99.90;;;;;;5068731;28;20040;-75
2022/01/07 08:02:31;;;;;;;22.08;18.38;;;4.20;99.90;;;;;;5072978;28;20123;-75
2022/01/07 08:04:57;;;;;;;22.33;18.05;;;4.20;99.90;;;;;;5073772;28;20044;-75
2022/01/07 08:07:23;;;;;;;22.52;17.80;;;4.20;99.90;;;;;;5072171;28;20127;-75
2022/01/07 08:09:50;;;;;;;22.92;18.73;;;4.20;99.90;;;;;;5073349;28;20128;-75
2022/01/07 08:12:39;;;;;;;19.73;17.48;;;4.30;99.90;;;;;;5056219;28;20036;-77
2022/01/07 08:17:45;;;;;;;20.50;18.23;;;4.40;99.90;;;;;;5064412;28;20044;-76
2022/01/07 08:20:11;;;;;;;22.02;19.42;;;4.40;99.90;;;;;;5060823;28;20042;-76
2022/01/07 08:22:37;;;;;;;23.27;19.15;;;4.30;99.90;;;;;;5073100;28;20169;-74
2022/01/07 08:25:03;;;;;;;25.55;19.90;;;4.40;99.90;;;;;;5073734;28;20044;-81
2022/01/07 08:27:29;;;;;;;24.15;18.35;;;4.40;99.90;;;;;;5072236;28;20048;-74
2022/01/07 08:29:54;;;;;;;29.73;20.65;;;4.40;99.90;;;;;;5073170;28;20384;-76
2022/01/07 08:35:05;;;;;;;21.90;18.52;;;4.50;99.90;;;;;;5073813;28;20060;-70
2022/01/07 08:37:31;;;;;;;20.80;18.15;;;4.50;99.90;;;;;;5070462;28;20040;-74
2022/01/07 08:39:57;;;;;;;22.75;18.77;;;4.60;99.90;;;;;;5072401;28;20047;-74
2022/01/07 08:42:24;;;;;;;22.35;18.67;;;4.60;99.90;;;;;;5072237;28;20070;-72
2022/01/07 08:44:52;;;;;;;22.60;19.05;;;4.70;99.90;;;;;;5067437;28;20052;-70
2022/01/07 08:47:21;;;;;;;25.25;19.77;;;4.70;99.90;;;;;;5071961;28;20050;-69
2022/01/07 08:49:48;;;;;;;24.40;19.40;;;4.70;99.90;;;;;;5055178;28;20574;-73
2022/01/07 08:52:15;;;;;;;22.02;19.23;;;4.70;99.90;;;;;;5072658;28;20048;-75
2022/01/07 08:54:40;;;;;;;27.80;19.55;;;4.60;99.90;;;;;;5072754;28;20036;-74
2022/01/07 08:57:06;;;;;;;23.80;20.05;;;4.60;99.90;;;;;;5072292;28;20052;-75
2022/01/07 08:59:32;;;;;;;25.13;21.30;;;4.60;99.90;;;;;;5070742;28;20050;-75
2022/01/07 09:01:57;;;;;;;26.92;21.48;;;4.70;99.90;;;;;;5071497;28;20050;-74
2022/01/07 09:04:23;;;;;;;26.48;20.63;;;4.70;99.90;;;;;;5072595;28;20047;-70
2022/01/07 09:06:48;;;;;;;23.85;21.20;;;4.80;99.90;;;;;;5072432;28;20048;-75
2022/01/07 09:09:14;;;;;;;28.58;21.05;;;4.80;99.90;;;;;;5055542;28;20397;-75
2022/01/07 09:11:40;;;;;;;27.63;22.98;;;4.80;99.90;;;;;;5069678;28;20048;-75
2022/01/07 09:14:06;;;;;;;32.42;23.27;;;4.80;99.90;;;;;;5074152;28;20376;-77
2022/01/07 09:16:31;;;;;;;27.00;21.55;;;5.00;99.90;;;;;;5052587;28;20857;-75
2022/01/07 09:18:57;;;;;;;24.50;20.13;;;5.00;99.90;;;;;;5053175;28;20071;-73
2022/01/07 09:21:22;;;;;;;23.60;21.13;;;5.10;99.90;;;;;;5052744;28;20122;-75
2022/01/07 09:23:48;;;;;;;27.85;21.65;;;5.10;99.90;;;;;;5070609;28;20096;-75
2022/01/07 09:26:14;;;;;;;26.30;20.45;;;5.20;99.90;;;;;;5072667;28;20528;-75
2022/01/07 09:28:40;;;;;;;31.33;21.27;;;5.20;99.90;;;;;;5071978;28;20048;-74
2022/01/07 09:31:06;;;;;;;24.35;21.42;;;5.20;99.90;;;;;;5072291;28;20044;-74
2022/01/07 09:33:32;;;;;;;26.05;21.48;;;5.20;99.90;;;;;;5071773;28;20142;-74
2022/01/07 09:35:57;;;;;;;18.30;15.18;;;5.30;99.90;;;;;;5072332;28;20051;-74
2022/01/07 09:38:25;;;;;;;14.38;11.82;;;5.20;99.90;;;;;;5079016;28;20047;-73
2022/01/07 09:40:51;;;;;;;13.15;8.27;;;5.20;99.90;;;;;;5089521;28;20052;-72
2022/01/07 09:43:16;;;;;;;7.60;3.20;;;5.10;99.90;;;;;;5071437;28;20455;-73
2022/01/07 09:45:42;;;;;;;5.95;2.53;;;5.00;99.90;;;;;;5070432;28;20056;-73
2022/01/07 09:48:08;;;;;;;3.80;2.45;;;4.80;99.90;;;;;;5063990;28;20496;-74
2022/01/07 09:50:35;;;;;;;4.05;1.75;;;4.70;99.90;;;;;;5071346;28;20051;-68
2022/01/07 09:53:12;;;;;;;4.35;1.52;;;4.50;99.90;;;;;;5075092;28;20055;-70
2022/01/07 09:55:38;;;;;;;3.67;0.80;;;4.50;99.90;;;;;;5076513;28;20085;-73
2022/01/07 09:58:05;;;;;;;3.08;0.52;;;4.40;99.90;;;;;;5076233;28;20396;-70
2022/01/07 10:00:49;;;;;;;3.50;0.93;;;4.30;99.90;;;;;;5093611;28;20492;-68
2022/01/07 10:03:16;;;;;;;3.13;1.40;;;4.30;99.90;;;;;;5075770;28;20048;-74
2022/01/07 10:05:48;;;;;;;4.00;1.50;;;4.20;99.90;;;;;;5058734;28;20577;-74
2022/01/07 10:08:21;;;;;;;4.57;2.13;;;4.20;99.90;;;;;;5075623;28;20075;-73
2022/01/07 10:11:07;;;;;;;5.93;2.95;;;4.20;99.90;;;;;;5075713;28;20496;-73
2022/01/07 10:13:33;;;;;;;7.95;3.90;;;4.20;99.90;;;;;;5074903;28;20044;-73
2022/01/07 10:16:22;;;;;;;9.85;6.28;;;4.30;99.90;;;;;;5076066;28;20039;-74
2022/01/07 10:18:49;;;;;;;11.95;7.65;;;4.30;99.90;;;;;;5051023;28;20051;-70
2022/01/07 10:21:16;;;;;;;9.32;5.93;;;4.30;99.90;;;;;;5075655;28;20485;-75
2022/01/07 10:23:44;;;;;;;9.57;6.43;;;4.40;99.90;;;;;;5075262;28;20047;-75
2022/01/07 10:26:18;;;;;;;10.73;5.50;;;4.40;99.90;;;;;;5075035;28;20089;-74
2022/01/07 10:28:46;;;;;;;8.65;3.47;;;4.60;99.90;;;;;;5075661;28;20556;-76
2022/01/07 10:31:20;;;;;;;7.38;1.88;;;4.70;99.90;;;;;;5074641;28;20040;-75
2022/01/07 10:33:48;;;;;;;6.65;1.55;;;4.70;99.90;;;;;;5058204;28;20507;-75
2022/01/07 10:36:22;;;;;;;4.50;1.50;;;4.80;99.90;;;;;;5075217;28;20370;-71
2022/01/07 10:39:01;;;;;;;6.38;1.77;;;4.90;99.90;;;;;;5073668;28;20051;-76
2022/01/07 10:41:27;;;;;;;4.57;1.98;;;5.00;99.90;;;;;;5075637;28;20453;-73
2022/01/07 10:43:53;;;;;;;4.30;2.70;;;5.00;99.90;;;;;;5093268;28;20043;-76
2022/01/07 10:46:27;;;;;;;6.25;2.78;;;5.10;99.90;;;;;;5074168;28;20055;-76
2022/01/07 10:48:56;;;;;;;10.98;4.43;;;5.10;99.90;;;;;;5074176;28;20522;-76
2022/01/07 10:51:26;;;;;;;10.63;6.18;;;5.10;99.90;;;;;;5074995;28;20722;-69
2022/01/07 10:53:54;;;;;;;11.15;8.05;;;5.10;99.90;;;;;;5074017;28;20048;-75
2022/01/07 10:56:35;;;;;;;16.92;10.50;;;5.20;99.90;;;;;;5074972;28;20100;-76
2022/01/07 10:59:03;;;;;;;15.27;12.45;;;5.20;99.90;;;;;;5074537;28;20492;-77
2022/01/07 11:01:40;;;;;;;18.33;13.98;;;5.20;99.90;;;;;;5073566;28;20778;-76
2022/01/07 11:04:08;;;;;;;19.92;15.43;;;5.30;99.90;;;;;;5074763;28;20044;-70
2022/01/07 11:06:35;;;;;;;23.95;15.85;;;5.20;99.90;;;;;;5068758;28;20034;-76
2022/01/07 11:09:03;;;;;;;21.17;16.42;;;5.20;99.90;;;;;;5066807;28;20039;-69
2022/01/07 11:11:30;;;;;;;20.98;15.88;;;5.20;99.90;;;;;;5069154;28;20865;-76
2022/01/07 11:14:06;;;;;;;22.17;16.35;;;5.20;99.90;;;;;;5073949;28;20549;-76
2022/01/07 11:16:32;;;;;;;22.02;15.85;;;5.10;99.90;;;;;;5074506;28;20463;-76
2022/01/07 11:18:59;;;;;;;15.82;9.90;;;5.10;99.90;;;;;;5074386;28;20123;-75
2022/01/07 11:21:24;;;;;;;8.02;6.80;;;5.10;99.90;;;;;;5073981;28;20089;-68
2022/01/07 11:23:50;;;;;;;8.48;4.95;;;5.10;99.90;;;;;;5072887;28;20036;-75
2022/01/07 11:26:16;;;;;;;6.65;3.35;;;5.20;99.90;;;;;;5074217;28;20043;-69
2022/01/07 11:29:03;;;;;;;4.90;2.67;;;5.10;99.90;;;;;;5073259;28;20040;-77
2022/01/07 11:31:30;;;;;;;4.57;1.45;;;5.20;99.90;;;;;;5073698;28;20051;-78
2022/01/07 11:34:22;;;;;;;4.00;1.00;;;5.10;99.90;;;;;;5074056;28;20066;-78
2022/01/07 11:36:48;;;;;;;1.75;0.60;;;5.20;99.90;;;;;;5071528;28;20062;-75
2022/01/07 11:39:14;;;;;;;2.47;0.30;;;5.00;99.90;;;;;;5073789;28;20048;-76
2022/01/07 11:41:55;;;;;;;2.90;0.40;;;5.00;99.90;;;;;;5073528;28;20046;-76
2022/01/07 11:44:26;;;;;;;3.42;0.38;;;5.00;99.90;;;;;;5073759;28;20056;-76
2022/01/07 11:47:12;;;;;;;5.22;0.20;;;5.00;99.90;;;;;;5073623;28;20056;-76
2022/01/07 11:49:38;;;;;;;5.28;0.35;;;4.90;99.90;;;;;;5073354;28;20131;-77
2022/01/07 11:52:32;;;;;;;2.20;0.20;;;5.00;99.90;;;;;;5073846;28;20044;-71
2022/01/07 11:55:24;;;;;;;5.72;0.38;;;5.20;99.90;;;;;;5073348;28;20131;-75
2022/01/07 11:57:52;;;;;;;6.45;0.50;;;5.30;99.90;;;;;;5072735;28;20056;-75
2022/01/07 12:00:48;;;;;;;2.03;0.20;;;5.30;99.90;;;;;;5073247;28;20044;-75
2022/01/07 12:03:28;;;;;;;4.97;0.20;;;5.30;99.90;;;;;;5068673;28;20044;-76
2022/01/07 12:05:53;;;;;;;6.13;0.30;;;5.20;99.90;;;;;;5072644;28;20091;-76
2022/01/07 12:08:19;;;;;;;4.70;0.35;;;5.20;99.90;;;;;;5057268;28;20036;-69
2022/01/07 12:10:45;;;;;;;3.30;0.38;;;5.00;99.90;;;;;;5043856;28;20052;-70
2022/01/07 12:13:10;;;;;;;3.58;0.50;;;5.00;99.90;;;;;;5063502;28;20043;-76
2022/01/07 12:15:39;;;;;;;2.70;0.50;;;5.00;99.90;;;;;;5073481;28;20131;-76
2022/01/07 12:18:11;;;;;;;2.80;0.20;;;5.00;99.90;;;;;;5072693;28;20101;-71
2022/01/07 12:20:47;;;;;;;3.33;0.60;;;5.10;99.90;;;;;;5074188;28;20067;-73
2022/01/07 12:23:19;;;;;;;2.97;0.25;;;5.20;99.90;;;;;;5056889;28;20634;-76
2022/01/07 12:25:53;;;;;;;5.07;0.22;;;5.30;99.90;;;;;;5054226;28;20048;-76
2022/01/07 12:28:19;;;;;;;2.05;0.17;;;5.30;99.90;;;;;;5073039;28;20040;-76
2022/01/07 12:30:46;;;;;;;3.67;0.20;;;5.20;99.90;;;;;;5073539;28;20039;-70
2022/01/07 12:33:12;;;;;;;3.17;0.60;;;5.10;99.90;;;;;;5072385;28;20036;-76
2022/01/07 12:35:39;;;;;;;2.55;0.50;;;5.20;99.90;;;;;;5054676;28;20096;-75
2022/01/07 12:38:12;;;;;;;8.15;0.55;;;5.40;99.90;;;;;;5056384;28;20036;-76
2022/01/07 12:40:39;;;;;;;7.13;0.60;;;5.40;99.90;;;;;;5073172;28;20067;-75
2022/01/07 12:43:05;;;;;;;4.45;0.60;;;5.50;99.90;;;;;;5047941;28;20043;-76
2022/01/07 12:45:31;;;;;;;5.22;0.75;;;6.00;99.90;;;;;;5045818;28;20413;-76
2022/01/07 12:47:57;;;;;;;2.92;0.98;;;6.70;99.90;;;;;;5072666;28;20133;-73
2022/01/07 12:50:24;;;;;;;1.85;0.85;;;7.50;99.90;;;;;;5072871;28;20421;-76
2022/01/07 12:52:51;;;;;;;4.88;1.42;;;8.00;98.70;;;;;;5055819;28;20492;-76
2022/01/07 12:55:19;;;;;;;5.72;1.50;;;8.30;97.10;;;;;;5072720;28;20047;-77
2022/01/07 12:57:47;;;;;;;4.15;1.20;;;8.40;96.30;;;;;;5072723;28;20080;-77